Time;durP1;ratioP1;P1;durP2;ratioP2;P2;SDS_P1;SDS_P2;PMS_P1;PMS_P2;Temp;Humidity;BMP_temperature;BMP_pressure;BME280_temperature;BME280_humidity;BME280_pressure;Samples;Min_cycle;Max_cycle;Signal;HPM_P1;HPM_P2
2021/06/23 05:22:36;;;;;;;25.02;3.52;;;;;;;31.42;39.53;100924.44;1747731;81;21259;-63
2021/06/23 05:25:11;;;;;;;21.60;3.75;;;;;;;31.64;38.00;100915.74;1750040;82;21223;-62
2021/06/23 05:27:44;;;;;;;16.32;3.58;;;;;;;31.79;37.85;100910.42;1751154;82;21975;-62
2021/06/23 05:30:20;;;;;;;25.17;4.28;;;;;;;31.88;36.89;100907.53;1749907;82;21217;-61
2021/06/23 05:32:53;;;;;;;13.13;3.58;;;;;;;31.99;36.85;100904.38;1752227;82;21308;-63
2021/06/23 05:35:26;;;;;;;;;;;;;;;32.20;36.65;100901.52;1752570;82;21220;-62
2021/06/23 05:37:59;;;;;;;21.20;4.30;;;;;;;32.82;36.31;100907.50;1778362;80;20249;-61
2021/06/23 05:40:33;;;;;;;18.67;3.62;;;;;;;33.50;35.79;100911.72;1744870;82;21367;-63
2021/06/23 05:43:06;;;;;;;29.85;4.47;;;;;;;34.13;34.65;100908.44;1781931;80;21287;-61
2021/06/23 05:45:39;;;;;;;;;;;;;;;34.53;33.16;100912.44;1788266;80;21235;-63
2021/06/23 05:52:21;;;;;;;23.40;3.62;;;;;;;34.78;33.22;100908.76;1786795;80;21120;-62
2021/06/23 05:54:56;;;;;;;21.57;4.47;;;;;;;35.09;33.25;100916.22;1786672;80;21315;-60
2021/06/23 05:57:31;;;;;;;23.75;4.95;;;;;;;35.20;32.99;100919.16;1786874;80;21843;-61
2021/06/23 06:00:05;;;;;;;30.72;5.53;;;;;;;35.07;32.52;100925.22;1786433;80;22074;-62
2021/06/23 06:02:43;;;;;;;26.85;5.60;;;;;;;34.80;32.89;100921.53;1786542;79;21308;-60
2021/06/23 06:05:16;;;;;;;20.20;5.20;;;;;;;34.56;32.97;100917.83;1777042;80;21334;-61
2021/06/23 06:07:50;;;;;;;26.37;5.87;;;;;;;34.33;33.32;100932.03;1755838;81;21314;-60
2021/06/23 06:10:23;;;;;;;23.27;5.95;;;;;;;34.05;33.69;100928.03;1747792;81;22098;-60
2021/06/23 06:12:57;;;;;;;25.75;5.92;;;;;;;33.88;33.99;100928.30;1742348;82;21185;-62
2021/06/23 06:15:32;;;;;;;30.77;7.08;;;;;;;33.78;34.44;100934.28;1741661;82;21475;-61
2021/06/23 06:18:06;;;;;;;27.52;5.90;;;;;;;33.68;34.85;100930.20;1742428;82;21165;-61
2021/06/23 06:20:40;;;;;;;27.07;5.47;;;;;;;33.56;34.96;100922.33;1741231;82;21343;-61
2021/06/23 06:23:13;;;;;;;26.40;5.55;;;;;;;33.50;35.39;100922.05;1741791;82;21301;-60
2021/06/23 06:25:48;;;;;;;28.98;5.15;;;;;;;33.56;35.47;100924.23;1741642;82;21300;-61
2021/06/23 06:28:22;;;;;;;28.87;4.78;;;;;;;33.73;35.20;100928.84;1741783;82;21303;-59
2021/06/23 06:30:56;;;;;;;22.62;4.60;;;;;;;34.00;34.98;100923.94;1740888;82;21319;-60
2021/06/23 06:33:29;;;;;;;25.52;4.87;;;;;;;34.46;34.48;100919.22;1742288;82;21236;-59
2021/06/23 06:36:03;;;;;;;21.37;4.80;;;;;;;35.04;34.16;100919.79;1742211;82;21304;-61
2021/06/23 06:38:38;;;;;;;22.75;5.20;;;;;;;35.68;33.82;100920.17;1742051;82;21259;-60
2021/06/23 06:41:12;;;;;;;29.40;5.72;;;;;;;36.19;31.89;100911.77;1740859;82;21249;-62
2021/06/23 06:43:45;;;;;;;25.85;6.17;;;;;;;36.48;31.64;100918.55;1742270;82;21283;-62
2021/06/23 06:46:18;;;;;;;51.05;8.55;;;;;;;36.79;30.93;100914.86;1740876;82;21315;-62
2021/06/23 06:48:51;;;;;;;29.60;5.92;;;;;;;37.32;29.58;100927.22;1742176;82;21308;-63
2021/06/23 06:51:26;;;;;;;36.15;6.53;;;;;;;38.01;28.87;100924.16;1739918;82;21217;-61
2021/06/23 06:53:59;;;;;;;28.17;5.50;;;;;;;38.53;28.33;100925.61;1741573;82;21325;-62
2021/06/23 06:56:33;;;;;;;35.15;6.00;;;;;;;38.72;27.69;100926.33;1740768;82;21315;-61
2021/06/23 06:59:08;;;;;;;35.30;5.95;;;;;;;38.83;27.07;100923.64;1742060;82;21331;-61
2021/06/23 07:01:43;;;;;;;32.78;6.55;;;;;;;38.95;26.39;100934.31;1740094;81;21165;-63
2021/06/23 07:04:16;;;;;;;34.53;5.67;;;;;;;39.06;25.80;100930.77;1741694;82;21315;-63
2021/06/23 07:06:50;;;;;;;40.88;6.45;;;;;;;39.13;26.00;100928.41;1741218;81;21333;-64
2021/06/23 07:09:25;;;;;;;37.80;6.35;;;;;;;39.30;25.97;100927.77;1742119;82;21299;-63
2021/06/23 07:11:58;;;;;;;35.90;6.22;;;;;;;39.64;25.72;100923.38;1736095;82;21357;-64
2021/06/23 07:14:32;;;;;;;37.10;5.78;;;;;;;39.95;25.42;100916.52;1712673;83;21467;-64
2021/06/23 07:17:06;;;;;;;34.13;6.42;;;;;;;40.23;25.15;100925.36;1712023;83;21331;-64
2021/06/23 07:19:40;;;;;;;29.95;6.08;;;;;;;40.25;25.46;100918.44;1713005;83;21261;-63
2021/06/23 07:22:13;;;;;;;29.00;5.25;;;;;;;40.22;26.32;100916.91;1711438;83;21212;-62
2021/06/23 07:24:47;;;;;;;33.10;5.65;;;;;;;40.13;27.05;100924.27;1712327;83;21255;-64
2021/06/23 07:27:22;;;;;;;36.53;6.15;;;;;;;39.92;27.18;100915.77;1711700;83;21657;-64
2021/06/23 07:29:56;;;;;;;33.60;6.17;;;;;;;39.59;26.80;100919.39;1713081;83;21319;-63
2021/06/23 07:32:44;;;;;;;28.02;5.35;;;;;;;39.26;27.44;100913.89;1711346;83;22195;-63
2021/06/23 07:37:58;;;;;;;33.25;5.60;;;;;;;38.71;28.08;100904.98;1711400;83;22047;-63
2021/06/23 07:43:18;;;;;;;33.60;5.40;;;;;;;38.50;28.91;100916.12;1711650;83;21331;-63
2021/06/23 07:45:54;;;;;;;39.42;5.70;;;;;;;38.37;29.11;100922.39;1712739;83;21319;-64
2021/06/23 07:48:32;;;;;;;34.60;5.90;;;;;;;38.27;28.97;100917.91;1733519;82;21296;-65
2021/06/23 07:51:13;;;;;;;35.43;6.00;;;;;;;38.19;29.41;100921.92;1713946;83;21354;-63
2021/06/23 08:10:52;;;;;;;31.85;5.03;;;;;;;38.23;29.55;100948.91;1713024;83;22165;-65
2021/06/23 08:13:25;;;;;;;28.90;4.53;;;;;;;38.79;28.54;100938.48;1734970;82;21182;-67
2021/06/23 08:15:59;;;;;;;16.62;3.50;;;;;;;39.57;27.19;100934.49;1713212;83;21201;-63
2021/06/23 08:18:34;;;;;;;17.20;4.03;;;;;;;40.21;26.02;100933.92;1711777;83;21335;-65
2021/06/23 08:21:08;;;;;;;16.25;3.92;;;;;;;40.85;24.74;100932.33;1712734;83;21260;-66
2021/06/23 08:23:41;;;;;;;19.07;3.40;;;;;;;41.28;23.46;100933.77;1712345;83;21264;-66
2021/06/23 08:26:15;;;;;;;64.05;8.80;;;;;;;41.52;22.94;100936.80;1712743;83;21339;-67
2021/06/23 08:28:48;;;;;;;12.88;2.35;;;;;;;41.71;21.35;100943.34;1711241;83;21390;-64
2021/06/23 08:31:22;;;;;;;15.28;2.42;;;;;;;41.57;21.51;100944.88;1712613;83;21328;-64
2021/06/23 08:33:55;;;;;;;6.72;2.33;;;;;;;41.20;20.64;100941.40;1711676;83;21374;-64
2021/06/23 08:36:32;;;;;;;16.00;2.80;;;;;;;40.82;21.35;100937.08;1713044;83;21244;-64
2021/06/23 08:39:08;;;;;;;11.05;3.10;;;;;;;40.69;22.12;100935.30;1733867;82;21200;-65
2021/06/23 08:41:42;;;;;;;12.82;2.40;;;;;;;40.77;22.45;100930.36;1712986;83;21323;-63
2021/06/23 08:44:38;;;;;;;15.18;2.67;;;;;;;40.95;22.09;100927.11;1711674;83;21232;-62
2021/06/23 08:47:25;;;;;;;15.70;2.40;;;;;;;41.02;21.90;100918.38;1677560;83;22083;-63
2021/06/23 08:49:59;;;;;;;13.53;2.80;;;;;;;41.06;21.52;100918.78;1715592;83;21308;-64
2021/06/23 08:52:33;;;;;;;11.40;2.33;;;;;;;40.94;21.97;100922.73;1712493;83;21367;-64
2021/06/23 08:55:07;;;;;;;12.85;2.10;;;;;;;40.90;21.97;100934.13;1712935;83;22049;-64
2021/06/23 08:57:41;;;;;;;13.72;2.60;;;;;;;40.87;21.79;100934.77;1712787;83;21386;-65
2021/06/23 09:00:18;;;;;;;10.72;2.67;;;;;;;40.77;21.77;100923.50;1713370;83;21994;-65
2021/06/23 09:07:01;;;;;;;11.03;1.72;;;;;;;40.62;23.10;100923.98;1711304;82;21415;-62
2021/06/23 09:09:43;;;;;;;;;;;;;;;40.64;21.06;100930.52;1735855;82;21213;-61
2021/06/23 09:12:18;;;;;;;7.70;2.08;;;;;;;40.48;21.23;100926.05;1734682;82;20207;-62
2021/06/23 09:14:51;;;;;;;7.70;1.67;;;;;;;40.16;21.12;100927.20;1692386;83;21316;-65
2021/06/23 09:17:24;;;;;;;12.00;2.58;;;;;;;39.89;21.51;100928.73;1692381;84;21210;-65
2021/06/23 09:20:00;;;;;;;6.87;1.70;;;;;;;39.76;21.87;100928.27;1691266;84;21324;-65
2021/06/23 09:22:40;;;;;;;6.90;1.52;;;;;;;39.89;22.19;100934.22;1692506;84;21331;-68
2021/06/23 09:25:18;;;;;;;11.63;1.77;;;;;;;40.17;21.98;100930.17;1692523;84;21352;-66
2021/06/23 09:28:00;;;;;;;4.78;1.30;;;;;;;40.41;22.00;100922.94;1692511;84;21971;-65
2021/06/23 09:30:36;;;;;;;9.30;1.40;;;;;;;40.63;22.19;100926.17;1692683;84;21529;-62
2021/06/23 09:33:18;;;;;;;7.22;1.80;;;;;;;40.56;22.02;100929.36;1692425;84;21336;-65
2021/06/23 09:36:04;;;;;;;11.75;2.05;;;;;;;40.37;21.71;100926.05;1692461;84;21206;-64
2021/06/23 09:38:46;;;;;;;9.18;1.75;;;;;;;40.16;22.03;100919.53;1697040;84;21906;-62
2021/06/23 09:41:37;;;;;;;14.07;2.27;;;;;;;39.85;22.03;100911.86;1700395;84;21499;-61
2021/06/23 09:44:11;;;;;;;6.92;1.62;;;;;;;39.51;21.41;100907.77;1699628;84;21217;-64
2021/06/23 09:46:49;;;;;;;14.43;2.20;;;;;;;39.22;21.78;100910.14;1700421;84;22034;-62
2021/06/23 09:49:27;;;;;;;7.28;1.65;;;;;;;39.02;21.13;100904.58;1699780;84;21530;-63
2021/06/23 09:52:13;;;;;;;10.63;2.00;;;;;;;38.84;20.95;100904.16;1700384;84;21535;-62
2021/06/23 09:54:54;;;;;;;9.38;1.85;;;;;;;38.60;21.07;100902.20;1696630;84;21202;-64
2021/06/23 09:57:29;;;;;;;9.38;1.50;;;;;;;38.43;21.00;100900.64;1701174;84;21447;-62
2021/06/23 10:00:12;;;;;;;13.93;2.25;;;;;;;38.30;21.40;100897.38;1699504;84;21206;-62
2021/06/23 10:02:47;;;;;;;7.83;1.55;;;;;;;38.14;21.52;100895.45;1700487;84;21174;-63
2021/06/23 10:05:27;;;;;;;8.18;1.60;;;;;;;37.98;22.24;100896.88;1700982;83;21302;-63
2021/06/23 10:08:01;;;;;;;5.75;1.60;;;;;;;37.87;22.29;100893.27;1700421;84;21213;-64
2021/06/23 10:10:46;;;;;;;5.90;1.75;;;;;;;37.66;22.88;100892.26;1699090;84;21347;-65
2021/06/23 10:13:18;;;;;;;;;;;;;;;37.53;23.72;100887.56;1702946;84;21245;-65
2021/06/23 10:15:51;;;;;;;9.57;1.70;;;;;;;37.43;24.07;100886.36;1739464;81;20399;-63
2021/06/23 10:18:27;;;;;;;8.55;1.60;;;;;;;37.32;23.65;100882.16;1744696;82;21307;-64
2021/06/23 10:21:06;;;;;;;11.20;2.40;;;;;;;37.16;24.24;100882.16;1743375;82;21193;-62
2021/06/23 10:23:37;;;;;;;10.48;1.62;;;;;;;37.03;24.62;100879.61;1745067;82;21334;-60
2021/06/23 10:26:11;;;;;;;14.40;2.10;;;;;;;36.97;24.86;100875.90;1743430;82;21432;-61
2021/06/23 10:28:47;;;;;;;15.18;2.00;;;;;;;36.90;25.25;100874.85;1727926;82;21311;-60
2021/06/23 10:31:21;;;;;;;6.92;1.98;;;;;;;36.81;25.77;100869.81;1742993;82;21208;-61
2021/06/23 10:33:56;;;;;;;7.78;1.70;;;;;;;36.74;26.56;100872.09;1727940;82;21290;-61
2021/06/23 10:36:29;;;;;;;10.00;1.80;;;;;;;36.67;26.51;100864.83;1744651;82;21934;-62
2021/06/23 10:39:05;;;;;;;8.10;1.87;;;;;;;36.65;26.56;100868.41;1744831;82;21639;-61
2021/06/23 10:41:40;;;;;;;14.87;1.70;;;;;;;36.61;27.16;100867.93;1744578;82;21433;-61
2021/06/23 10:44:19;;;;;;;5.58;1.70;;;;;;;36.66;27.52;100869.22;1744475;82;21335;-62
2021/06/23 10:51:05;;;;;;;13.38;1.87;;;;;;;37.05;26.79;100861.02;1743422;82;21203;-60
2021/06/23 10:53:39;;;;;;;6.35;1.70;;;;;;;37.29;25.77;100854.62;1724731;82;21161;-60
2021/06/23 10:56:13;;;;;;;9.70;1.92;;;;;;;37.39;25.42;100855.30;1743319;82;21332;-59
2021/06/23 10:58:47;;;;;;;11.05;1.82;;;;;;;37.50;24.79;100847.72;1704399;82;21358;-62
2021/06/23 11:01:20;;;;;;;8.60;1.92;;;;;;;37.56;24.39;100854.19;1743511;82;21495;-62
2021/06/23 11:04:02;;;;;;;15.80;2.90;;;;;;;37.55;23.57;100851.73;1744521;82;21315;-61
2021/06/23 11:06:46;;;;;;;29.30;3.50;;;;;;;37.51;23.33;100851.54;1743586;81;21471;-59
2021/06/23 11:09:29;;;;;;;8.68;2.00;;;;;;;37.52;24.16;100840.84;1744806;82;21181;-61
2021/06/23 11:12:03;;;;;;;13.65;2.60;;;;;;;37.54;23.10;100846.84;1743203;82;22146;-61
2021/06/23 11:14:37;;;;;;;8.50;1.87;;;;;;;37.53;23.72;100841.13;1744540;82;21327;-63
2021/06/23 11:17:32;;;;;;;8.65;1.75;;;;;;;37.53;23.06;100841.13;1731950;82;21201;-64
2021/06/23 11:20:08;;;;;;;8.90;1.65;;;;;;;37.46;23.19;100838.52;1722492;83;21186;-63
2021/06/23 11:22:41;;;;;;;13.32;2.08;;;;;;;37.39;23.76;100836.19;1727016;82;21205;-63
2021/06/23 11:25:31;;;;;;;6.80;1.80;;;;;;;37.36;23.71;100833.20;1733332;82;21264;-62
2021/06/23 11:28:15;;;;;;;11.12;2.02;;;;;;;37.37;23.25;100835.64;1767945;81;21185;-63
2021/06/23 11:31:06;;;;;;;10.48;1.92;;;;;;;37.31;23.07;100839.56;1767709;81;21259;-63
2021/06/23 11:33:42;;;;;;;5.58;1.80;;;;;;;37.22;22.70;100829.07;1767656;81;21291;-63
2021/06/23 11:36:19;;;;;;;10.13;2.08;;;;;;;37.19;23.35;100830.23;1732788;82;21204;-63
2021/06/23 11:38:54;;;;;;;14.93;1.90;;;;;;;37.17;23.50;100827.78;1767998;81;21275;-62
2021/06/23 11:41:27;;;;;;;12.20;2.37;;;;;;;37.11;23.49;100830.36;1767386;81;21601;-62
2021/06/23 11:44:00;;;;;;;12.43;2.30;;;;;;;37.05;23.50;100830.17;1768082;81;22131;-62
2021/06/23 11:46:33;;;;;;;3.25;1.60;;;;;;;36.99;23.46;100828.64;1766778;81;21848;-62
2021/06/23 11:49:07;;;;;;;5.90;2.00;;;;;;;36.90;24.32;100824.94;1768324;79;21300;-62
2021/06/23 11:51:42;;;;;;;8.28;1.72;;;;;;;36.83;25.10;100824.50;1767135;81;21469;-62
2021/06/23 11:54:15;;;;;;;10.13;2.08;;;;;;;36.77;24.76;100821.03;1768107;81;21182;-63
2021/06/23 11:56:49;;;;;;;16.82;2.72;;;;;;;36.69;25.45;100822.23;1745349;81;21178;-63
2021/06/23 11:59:22;;;;;;;6.83;1.77;;;;;;;36.63;26.04;100825.61;1768270;81;21182;-63
2021/06/23 12:01:56;;;;;;;11.57;3.15;;;;;;;36.67;25.99;100825.81;1767366;81;22034;-63
2021/06/23 12:04:31;;;;;;;7.90;1.90;;;;;;;36.67;26.67;100826.63;1768241;81;21217;-64
2021/06/23 12:07:05;;;;;;;7.80;2.00;;;;;;;36.65;26.67;100820.66;1766694;81;21485;-64
2021/06/23 12:09:38;;;;;;;7.08;2.20;;;;;;;36.63;25.21;100825.61;1746237;81;21343;-64
2021/06/23 12:12:12;;;;;;;13.18;2.20;;;;;;;36.57;24.94;100818.59;1767324;81;21932;-63
2021/06/23 12:14:45;;;;;;;7.20;2.00;;;;;;;36.52;25.42;100812.41;1768173;81;21296;-63
2021/06/23 12:17:19;;;;;;;8.85;2.08;;;;;;;36.46;24.87;100814.39;1769001;81;21205;-64
2021/06/23 12:19:53;;;;;;;9.65;2.10;;;;;;;36.39;22.97;100813.37;1773448;81;21347;-63
2021/06/23 12:22:26;;;;;;;16.05;2.42;;;;;;;36.27;21.94;100812.98;1772869;79;22128;-63
2021/06/23 12:24:59;;;;;;;;;;;;;;;36.21;22.50;100812.77;1776100;81;21359;-63
2021/06/23 12:27:32;;;;;;;10.68;2.15;;;;;;;36.11;22.33;100809.38;1772344;79;20801;-62
2021/06/23 12:30:07;;;;;;;11.97;2.25;;;;;;;36.03;23.51;100812.20;1773385;81;21715;-63
2021/06/23 12:32:40;;;;;;;12.45;2.12;;;;;;;36.01;24.22;100806.77;1772852;81;21304;-63
2021/06/23 12:39:23;;;;;;;19.23;2.42;;;;;;;35.97;24.77;100811.16;1773588;81;21177;-62
2021/06/23 12:41:56;;;;;;;10.03;2.15;;;;;;;35.91;23.66;100808.22;1773000;81;21335;-63
2021/06/23 12:44:30;;;;;;;8.93;2.30;;;;;;;35.87;24.25;100812.09;1773158;81;21355;-62
2021/06/23 12:50:16;;;;;;;7.58;2.05;;;;;;;35.79;23.29;100804.00;1740186;81;21444;-62
2021/06/23 12:52:50;;;;;;;12.60;1.90;;;;;;;35.64;23.34;100806.87;1772961;81;21645;-61
2021/06/23 12:55:23;;;;;;;8.68;2.05;;;;;;;35.51;23.87;100802.13;1773676;81;21989;-63
2021/06/23 12:57:57;;;;;;;10.03;2.15;;;;;;;35.44;24.33;100804.89;1772075;81;21308;-63
2021/06/23 13:00:29;;;;;;;;;;;;;;;35.36;24.78;100809.58;1776082;81;21308;-63
2021/06/23 13:07:12;;;;;;;13.98;2.22;;;;;;;35.18;25.33;100796.94;1772595;81;21221;-63
2021/06/23 13:09:46;;;;;;;11.53;2.02;;;;;;;35.03;26.45;100805.25;1773620;81;21190;-61
2021/06/23 13:12:22;;;;;;;;;;;;;;;34.93;26.47;100809.38;1776230;79;21417;-61
2021/06/23 13:14:55;;;;;;;8.55;2.05;;;;;;;34.81;26.18;100810.27;1773527;81;20414;-63
2021/06/23 13:17:29;;;;;;;10.43;2.05;;;;;;;34.68;26.33;100806.81;1777175;79;21434;-61
2021/06/23 13:24:09;;;;;;;8.50;2.55;;;;;;;34.50;26.94;100812.34;1799298;79;22022;-61
2021/06/23 13:26:43;;;;;;;11.08;2.50;;;;;;;34.43;26.64;100811.02;1761267;81;21292;-62
2021/06/23 13:29:18;;;;;;;13.88;2.47;;;;;;;34.43;26.56;100813.20;1776398;79;21192;-62
2021/06/23 13:31:51;;;;;;;14.03;2.15;;;;;;;34.47;26.98;100808.00;1761684;81;21329;-61
2021/06/23 13:34:24;;;;;;;6.42;1.67;;;;;;;34.50;26.81;100807.45;1798376;79;21315;-61
2021/06/23 13:36:58;;;;;;;8.58;1.82;;;;;;;34.53;27.13;100811.83;1761484;81;21367;-62
2021/06/23 13:47:50;;;;;;;11.38;1.60;;;;;;;34.51;27.53;100809.09;1798930;78;21373;-61
2021/06/23 13:58:25;;;;;;;8.93;1.87;;;;;;;34.47;28.20;100800.66;1766864;81;21224;-61
2021/06/23 14:00:58;;;;;;;8.78;1.77;;;;;;;34.42;27.88;100804.77;1791699;79;21267;-64
2021/06/23 14:03:31;;;;;;;;;;;;;;;34.39;29.06;100813.47;1784394;79;21344;-62
2021/06/23 14:06:03;;;;;;;9.20;2.10;;;;;;;34.35;29.96;100806.98;1767447;81;20191;-61
2021/06/23 14:08:37;;;;;;;8.88;2.60;;;;;;;34.30;30.19;100804.28;1767084;81;21320;-64
2021/06/23 14:11:10;;;;;;;10.98;2.35;;;;;;;34.27;31.13;100806.19;1768414;81;21182;-63
2021/06/23 14:13:43;;;;;;;13.72;2.20;;;;;;;34.24;31.09;100808.67;1767629;81;21307;-62
2021/06/23 14:16:16;;;;;;;8.05;1.70;;;;;;;34.21;30.31;100803.78;1768304;81;21220;-63
2021/06/23 14:18:49;;;;;;;7.22;1.67;;;;;;;34.17;28.20;100810.88;1769537;80;22188;-61
2021/06/23 14:21:23;;;;;;;5.20;1.98;;;;;;;34.13;28.54;100805.74;1776238;80;21279;-62
2021/06/23 14:23:58;;;;;;;;;;;;;;;34.08;28.57;100801.14;1778514;79;21316;-60
2021/06/23 14:26:31;;;;;;;13.13;2.17;;;;;;;34.05;29.18;100803.05;1774317;80;20398;-62
2021/06/23 14:29:06;;;;;;;;;;;;;;;34.00;29.82;100801.67;1777562;80;21186;-64
2021/06/23 14:31:38;;;;;;;10.05;2.42;;;;;;;33.98;30.45;100805.76;1775796;80;20266;-61
2021/06/23 14:34:11;;;;;;;;;;;;;;;33.92;31.00;100806.31;1779125;80;21331;-59
2021/06/23 14:36:45;;;;;;;8.60;2.37;;;;;;;33.89;31.41;100802.81;1775997;80;20198;-60
2021/06/23 14:39:18;;;;;;;16.27;2.77;;;;;;;33.84;31.20;100807.69;1775850;80;22049;-63
2021/06/23 14:41:52;;;;;;;13.38;2.98;;;;;;;33.78;30.96;100802.55;1775557;80;21186;-62
2021/06/23 14:44:25;;;;;;;14.47;2.98;;;;;;;33.73;31.14;100817.50;1775713;80;21324;-61
2021/06/23 14:46:58;;;;;;;10.93;2.52;;;;;;;33.70;31.15;100819.43;1776551;80;21259;-62
2021/06/23 14:49:31;;;;;;;6.50;2.27;;;;;;;33.64;31.18;100811.01;1775076;80;21241;-60
2021/06/23 14:52:05;;;;;;;13.13;2.27;;;;;;;33.59;31.35;100810.48;1776485;80;21174;-62
2021/06/23 14:54:39;;;;;;;9.90;2.20;;;;;;;33.55;31.53;100809.95;1764278;79;21341;-59
2021/06/23 14:57:13;;;;;;;10.40;2.22;;;;;;;33.51;31.91;100812.91;1810545;79;21543;-61
2021/06/23 14:59:46;;;;;;;10.55;2.12;;;;;;;33.46;32.16;100812.92;1812746;79;21156;-60
2021/06/23 15:02:19;;;;;;;10.88;2.30;;;;;;;33.43;32.28;100812.09;1810628;79;22114;-61
2021/06/23 15:04:55;;;;;;;10.55;2.10;;;;;;;33.39;32.78;100814.53;1789215;79;21266;-58
2021/06/23 15:07:28;;;;;;;14.03;2.40;;;;;;;33.37;32.54;100810.46;1776841;80;22112;-61
2021/06/23 15:10:02;;;;;;;7.87;2.05;;;;;;;33.32;32.69;100809.92;1776338;79;21312;-60
2021/06/23 15:12:37;;;;;;;9.00;2.67;;;;;;;33.29;32.97;100815.92;1775827;80;21300;-60
2021/06/23 15:15:12;;;;;;;12.50;2.20;;;;;;;33.24;33.11;100812.66;1797710;79;21353;-60
2021/06/23 15:17:46;;;;;;;13.22;2.45;;;;;;;33.21;33.70;100812.38;1808510;79;21795;-60
2021/06/23 15:20:19;;;;;;;10.82;2.72;;;;;;;33.16;33.97;100805.59;1806894;79;21287;-60
2021/06/23 15:22:52;;;;;;;;;;;;;;;33.11;34.33;100811.02;1802244;79;21299;-61
2021/06/23 15:25:25;;;;;;;14.03;3.00;;;;;;;33.05;34.41;100808.05;1775110;79;20772;-60
2021/06/23 15:27:59;;;;;;;10.82;3.00;;;;;;;32.99;34.73;100806.37;1768967;81;21148;-62
2021/06/23 15:30:32;;;;;;;12.07;3.52;;;;;;;32.92;34.65;100803.93;1758314;79;22131;-61
2021/06/23 15:33:06;;;;;;;20.12;3.95;;;;;;;32.87;34.97;100808.52;1756335;81;21189;-61
2021/06/23 15:35:40;;;;;;;20.92;4.08;;;;;;;32.83;35.37;100807.45;1759110;81;21315;-61
2021/06/23 15:38:13;;;;;;;12.93;3.10;;;;;;;32.77;35.35;100813.39;1723289;82;21245;-60
2021/06/23 15:40:48;;;;;;;17.07;3.02;;;;;;;32.71;35.76;100811.77;1722939;82;21335;-60
2021/06/23 15:43:21;;;;;;;12.93;3.25;;;;;;;32.66;35.98;100810.40;1759650;81;21193;-61
2021/06/23 15:45:53;;;;;;;;;;;;;;;32.58;36.07;100810.37;1761719;81;21467;-62
2021/06/23 15:48:27;;;;;;;10.88;2.95;;;;;;;32.52;36.29;100808.75;1759091;81;20338;-63
2021/06/23 15:51:00;;;;;;;11.63;3.27;;;;;;;32.46;36.48;100811.13;1759464;81;21359;-61
2021/06/23 15:53:33;;;;;;;14.10;3.10;;;;;;;32.40;36.79;100809.49;1758850;81;21307;-61
2021/06/23 15:56:06;;;;;;;;;;;;;;;32.35;37.27;100810.83;1770614;81;21162;-61
2021/06/23 15:58:38;;;;;;;8.88;2.92;;;;;;;32.28;37.61;100810.80;1767858;79;20213;-62
2021/06/23 16:01:12;;;;;;;13.05;3.37;;;;;;;32.20;38.17;100812.11;1745608;81;21485;-61
2021/06/23 16:03:45;;;;;;;12.58;3.27;;;;;;;32.13;38.75;100811.55;1771397;79;21202;-60
2021/06/23 16:06:19;;;;;;;10.78;3.02;;;;;;;32.07;39.27;100811.27;1800693;79;21185;-60
2021/06/23 16:08:51;;;;;;;;;;;;;;;32.00;39.67;100809.87;1801580;79;21303;-60
2021/06/23 16:11:25;;;;;;;10.20;3.15;;;;;;;31.93;39.99;100813.58;1799233;79;20796;-61
2021/06/23 16:13:58;;;;;;;22.58;2.77;;;;;;;31.83;40.24;100816.26;1800039;79;21287;-62
2021/06/23 16:16:31;;;;;;;11.73;2.25;;;;;;;31.78;40.47;100809.98;1799228;79;21212;-61
2021/06/23 16:19:04;;;;;;;;;;;;;;;31.71;40.73;100811.58;1795777;79;21194;-61
2021/06/23 16:21:38;;;;;;;7.12;2.25;;;;;;;31.65;40.90;100815.84;1772378;81;20334;-61
2021/06/23 16:24:18;;;;;;;13.05;2.40;;;;;;;31.56;41.24;100815.53;1764149;81;21964;-60
2021/06/23 16:26:50;;;;;;;15.93;4.28;;;;;;;31.49;41.51;100819.00;1762800;81;21217;-61
2021/06/23 16:29:23;;;;;;;28.90;9.38;;;;;;;31.43;41.75;100815.14;1764261;81;21193;-60
2021/06/23 16:31:56;;;;;;;17.23;4.05;;;;;;;31.37;42.03;100817.52;1763925;81;21193;-62
2021/06/23 16:34:29;;;;;;;13.18;6.28;;;;;;;31.28;42.40;100813.95;1764465;81;21574;-60
2021/06/23 16:37:02;;;;;;;18.82;4.70;;;;;;;31.22;42.69;100817.67;1763678;81;21252;-60
2021/06/23 16:39:35;;;;;;;14.63;3.00;;;;;;;31.15;42.89;100814.91;1764301;81;22111;-60
2021/06/23 16:42:09;;;;;;;13.28;3.30;;;;;;;31.07;43.17;100815.39;1765533;81;22013;-60
2021/06/23 16:44:42;;;;;;;12.28;3.02;;;;;;;30.98;43.38;100816.37;1764545;81;21253;-60
2021/06/23 16:47:16;;;;;;;12.55;3.30;;;;;;;30.91;43.48;100816.30;1765126;81;21311;-61
2021/06/23 16:49:49;;;;;;;9.20;2.35;;;;;;;30.82;43.74;100821.86;1764496;81;21350;-62
2021/06/23 16:52:29;;;;;;;8.90;2.22;;;;;;;30.75;43.87;100823.95;1766178;81;21319;-60
2021/06/23 16:54:57;;;;;;;8.95;2.20;;;;;;;30.65;43.86;100819.27;1764746;81;21327;-61
2021/06/23 16:57:30;;;;;;;7.70;2.17;;;;;;;30.56;44.07;100821.61;1764475;81;21323;-60
2021/06/23 17:00:05;;;;;;;59.55;28.95;;;;;;;30.49;44.20;100822.88;1765223;81;21161;-60
2021/06/23 17:02:38;;;;;;;108.35;60.28;;;;;;;30.40;44.25;100825.19;1764090;81;21444;-61
2021/06/23 17:05:13;;;;;;;26.87;9.45;;;;;;;30.32;44.42;100828.32;1764941;81;21315;-61
2021/06/23 17:07:46;;;;;;;108.52;45.30;;;;;;;30.22;44.43;100826.84;1763263;81;21220;-62
2021/06/23 17:10:19;;;;;;;23.67;8.23;;;;;;;30.13;44.57;100827.00;1768175;81;21295;-60
2021/06/23 17:12:52;;;;;;;16.15;3.60;;;;;;;30.03;44.72;100826.86;1766353;81;21316;-60
2021/06/23 17:15:25;;;;;;;15.45;2.60;;;;;;;29.94;44.79;100825.66;1765569;81;21296;-60
2021/06/23 17:17:58;;;;;;;20.68;3.33;;;;;;;29.85;44.87;100830.65;1763608;81;21204;-61
2021/06/23 17:20:32;;;;;;;14.35;2.50;;;;;;;29.77;44.95;100835.66;1768642;81;21300;-61
2021/06/23 17:23:05;;;;;;;14.20;2.77;;;;;;;29.66;45.03;100829.28;1767187;81;21343;-61
2021/06/23 17:25:37;;;;;;;;;;;;;;;29.58;45.23;100832.91;1779618;81;21590;-62
2021/06/23 17:28:10;;;;;;;8.40;2.30;;;;;;;29.48;45.50;100834.10;1772944;81;20410;-60
2021/06/23 17:30:44;;;;;;;8.38;2.52;;;;;;;29.34;45.80;100834.45;1749928;81;22090;-61
2021/06/23 17:33:17;;;;;;;10.90;2.92;;;;;;;29.25;46.14;100837.79;1773783;81;21216;-61
2021/06/23 17:35:50;;;;;;;9.18;2.47;;;;;;;29.14;46.56;100839.98;1775009;81;21256;-61
2021/06/23 17:38:23;;;;;;;14.98;2.47;;;;;;;29.01;46.90;100843.82;1776308;81;21204;-60
2021/06/23 17:40:57;;;;;;;10.40;2.27;;;;;;;28.91;47.36;100847.67;1777044;80;21161;-60
2021/06/23 17:43:32;;;;;;;12.68;2.55;;;;;;;28.80;47.63;100851.77;1777670;81;21280;-61
2021/06/23 17:46:05;;;;;;;8.15;2.62;;;;;;;28.67;48.07;100844.79;1778526;81;21240;-61
2021/06/23 17:48:39;;;;;;;6.15;2.60;;;;;;;28.57;48.45;100849.94;1776653;81;21168;-61
2021/06/23 17:51:13;;;;;;;10.00;2.35;;;;;;;28.37;48.51;100853.06;1778224;81;21796;-61
2021/06/23 17:53:46;;;;;;;11.95;2.52;;;;;;;28.37;48.51;100853.06;1777564;81;21276;-62
2021/06/23 17:56:19;;;;;;;;;;;;;;;28.30;49.30;100852.90;1781144;81;21661;-63
2021/06/23 17:58:52;;;;;;;9.33;2.47;;;;;;;28.23;49.44;100854.36;1777592;81;20215;-62
2021/06/23 18:01:25;;;;;;;10.32;2.08;;;;;;;28.14;49.54;100853.09;1778670;81;21292;-62
2021/06/23 18:03:59;;;;;;;9.90;2.00;;;;;;;28.07;49.68;100849.70;1777387;81;21296;-62
2021/06/23 18:06:34;;;;;;;12.20;2.40;;;;;;;28.00;49.81;100851.70;1754125;81;21807;-62
2021/06/23 18:09:07;;;;;;;8.73;2.27;;;;;;;27.94;49.86;100853.97;1777685;81;21279;-62
2021/06/23 18:11:40;;;;;;;17.07;2.60;;;;;;;27.87;49.90;100849.23;1777873;81;21304;-63
2021/06/23 18:14:13;;;;;;;14.63;3.42;;;;;;;27.80;49.98;100852.02;1777651;81;21189;-62
2021/06/23 18:16:50;;;;;;;9.23;3.58;;;;;;;27.63;50.13;100848.42;1778486;80;21255;-61
2021/06/23 18:19:22;;;;;;;10.15;3.47;;;;;;;27.63;50.13;100848.42;1777663;81;21311;-61
2021/06/23 18:21:56;;;;;;;14.87;3.75;;;;;;;27.58;50.38;100850.98;1778017;81;21323;-61
2021/06/23 18:24:29;;;;;;;20.80;3.67;;;;;;;27.50;50.74;100862.59;1777095;81;21268;-61
2021/06/23 18:27:02;;;;;;;19.42;4.12;;;;;;;27.38;51.43;100855.34;1778598;81;21126;-61